Time;durP1;ratioP1;P1;durP2;ratioP2;P2;SDS_P1;SDS_P2;PMS_P1;PMS_P2;Temp;Humidity;BMP_temperature;BMP_pressure;BME280_temperature;BME280_humidity;BME280_pressure;Samples;Min_cycle;Max_cycle;Signal;HPM_P1;HPM_P2
2023/06/18 00:02:11;;;;;;;5.93;3.72;;;;;;;24.40;45.84;100647.50;4992488;28;20163;-76
2023/06/18 00:05:06;;;;;;;4.65;3.25;;;;;;;24.37;45.95;100639.97;4980349;28;20069;-76
2023/06/18 00:07:58;;;;;;;9.32;4.15;;;;;;;24.40;45.52;100644.72;4990199;28;20057;-76
2023/06/18 00:10:52;;;;;;;6.88;3.70;;;;;;;24.35;45.80;100644.34;4972972;28;20050;-76
2023/06/18 00:13:44;;;;;;;5.95;4.05;;;;;;;24.36;45.51;100637.59;4972746;28;20049;-76
2023/06/18 00:16:39;;;;;;;7.50;3.95;;;;;;;24.34;45.71;100635.22;4972388;28;20041;-77
2023/06/18 00:19:33;;;;;;;7.88;3.90;;;;;;;24.30;45.84;100640.03;4972914;28;20552;-77
2023/06/18 00:22:28;;;;;;;6.57;3.67;;;;;;;24.27;45.61;100638.09;4973002;28;20418;-77
2023/06/18 00:25:21;;;;;;;6.85;3.40;;;;;;;24.26;45.80;100631.72;4972619;28;20054;-77
2023/06/18 00:28:13;;;;;;;5.47;3.45;;;;;;;24.30;45.56;100640.03;4973222;28;20049;-77
2023/06/18 00:31:07;;;;;;;4.82;3.60;;;;;;;24.31;45.90;100635.25;4972113;28;20057;-77
2023/06/18 00:34:06;;;;;;;5.25;3.65;;;;;;;24.31;45.64;100638.84;4975176;28;20062;-77
2023/06/18 00:37:01;;;;;;;6.47;3.38;;;;;;;24.29;45.79;100632.88;4986749;28;20398;-77
2023/06/18 00:39:56;;;;;;;8.82;3.90;;;;;;;24.26;46.01;100645.63;4976329;28;20066;-77
2023/06/18 00:42:48;;;;;;;7.68;3.88;;;;;;;24.27;46.00;100640.88;4972766;28;20049;-77
2023/06/18 00:45:41;;;;;;;6.85;3.55;;;;;;;24.27;46.11;100640.88;4985329;28;20050;-77
2023/06/18 00:48:35;;;;;;;9.10;3.92;;;;;;;24.28;45.82;100642.41;4979804;28;20054;-77
2023/06/18 00:51:30;;;;;;;5.78;3.90;;;;;;;24.27;45.88;100635.31;4986820;28;20536;-77
2023/06/18 00:54:24;;;;;;;5.85;3.60;;;;;;;24.28;46.00;100642.41;4995628;28;20049;-77
2023/06/18 00:57:18;;;;;;;8.90;4.25;;;;;;;24.25;46.20;100632.13;4993697;28;20045;-76
2023/06/18 01:00:16;;;;;;;7.97;4.22;;;;;;;24.27;46.09;100640.88;4991752;28;20505;-76
2023/06/18 01:03:16;;;;;;;5.50;3.92;;;;;;;24.27;45.90;100636.09;4991665;28;20046;-76
2023/06/18 01:06:11;;;;;;;8.48;4.65;;;;;;;24.26;46.03;100630.94;4991776;28;20054;-76
2023/06/18 01:09:07;;;;;;;7.93;4.70;;;;;;;24.26;46.01;100631.72;4995828;28;20049;-77
2023/06/18 01:12:01;;;;;;;7.82;3.97;;;;;;;24.25;45.91;100632.13;4991497;28;20053;-76
2023/06/18 01:14:53;;;;;;;6.07;3.88;;;;;;;24.21;45.94;100642.50;4991477;28;20683;-76
2023/06/18 01:17:50;;;;;;;7.90;4.25;;;;;;;24.17;46.08;100633.41;4991604;28;20563;-76
2023/06/18 01:20:45;;;;;;;6.40;3.88;;;;;;;24.16;45.94;100634.56;4991767;28;20089;-76
2023/06/18 01:23:49;;;;;;;4.93;3.70;;;;;;;24.15;46.18;100627.44;4981263;28;20045;-76
2023/06/18 01:26:44;;;;;;;8.05;3.75;;;;;;;24.18;45.85;100632.19;4978934;28;20049;-76
2023/06/18 01:29:39;;;;;;;7.07;4.35;;;;;;;24.13;45.85;100627.03;4994295;28;20405;-76
2023/06/18 01:32:34;;;;;;;5.55;4.18;;;;;;;24.21;45.56;100629.41;4983540;28;20049;-76
2023/06/18 01:35:28;;;;;;;9.90;3.97;;;;;;;24.25;45.23;100629.34;4994966;28;20520;-76
2023/06/18 01:38:34;;;;;;;7.18;4.32;;;;;;;24.24;45.46;100630.56;4995398;28;20114;-77
2023/06/18 01:41:31;;;;;;;7.07;3.90;;;;;;;24.23;45.90;100626.19;4981823;28;20049;-76
2023/06/18 01:44:27;;;;;;;8.70;4.65;;;;;;;24.21;45.49;100636.94;4994776;28;20568;-76
2023/06/18 01:47:23;;;;;;;6.35;3.67;;;;;;;24.20;45.62;100627.00;4994703;28;20046;-76
2023/06/18 01:50:18;;;;;;;5.38;3.67;;;;;;;24.18;45.71;100635.75;4980521;28;20057;-76
2023/06/18 01:53:17;;;;;;;6.28;3.90;;;;;;;24.18;45.60;100632.19;4983460;28;20520;-76
2023/06/18 01:56:11;;;;;;;5.57;3.72;;;;;;;24.12;45.75;100629.06;4981152;28;20042;-76
2023/06/18 01:59:06;;;;;;;5.90;4.07;;;;;;;24.10;45.87;100630.66;4984438;28;20429;-76
2023/06/18 02:02:00;;;;;;;5.95;4.00;;;;;;;24.12;45.92;100642.16;4982289;28;20054;-76
2023/06/18 02:04:55;;;;;;;6.07;3.53;;;;;;;24.17;45.72;100636.19;4994458;28;20536;-76
2023/06/18 02:07:49;;;;;;;6.00;3.72;;;;;;;24.16;45.58;100642.91;4994547;28;20069;-76
2023/06/18 02:10:44;;;;;;;5.15;3.25;;;;;;;24.20;45.55;100641.72;4994634;28;20058;-76
2023/06/18 02:13:38;;;;;;;7.97;4.07;;;;;;;24.21;45.13;100639.72;4994159;28;20413;-76
2023/06/18 02:16:33;;;;;;;8.18;4.18;;;;;;;24.22;45.11;100646.88;4994338;28;20536;-76
2023/06/18 02:19:28;;;;;;;6.95;4.18;;;;;;;24.21;45.42;100648.06;4994448;28;20073;-76
2023/06/18 02:22:22;;;;;;;8.55;5.07;;;;;;;24.10;45.33;100650.09;4983231;28;20061;-76
2023/06/18 02:25:18;;;;;;;8.38;4.10;;;;;;;24.02;45.52;100651.34;4993992;28;20049;-76
2023/06/18 02:28:11;;;;;;;8.27;4.55;;;;;;;24.04;45.35;100660.84;4980959;28;20057;-76
2023/06/18 02:31:06;;;;;;;7.65;4.88;;;;;;;23.99;44.62;100668.81;4994201;28;20049;-77
2023/06/18 02:34:00;;;;;;;4.88;4.18;;;;;;;23.91;45.61;100673.66;4979304;28;20045;-77
2023/06/18 02:36:55;;;;;;;5.72;4.43;;;;;;;23.85;45.55;100673.28;4981076;28;20054;-77
2023/06/18 02:39:49;;;;;;;5.95;4.88;;;;;;;23.85;45.62;100669.72;4974175;28;20058;-77
2023/06/18 02:42:47;;;;;;;5.80;4.63;;;;;;;23.66;46.35;100670.22;4974558;28;20066;-77
2023/06/18 02:45:42;;;;;;;6.80;4.45;;;;;;;23.72;46.46;100672.16;4962191;28;20049;-77
2023/06/18 02:48:38;;;;;;;10.98;4.30;;;;;;;23.70;46.32;100673.78;4960074;28;20105;-77
2023/06/18 02:51:33;;;;;;;9.18;4.57;;;;;;;23.47;47.07;100674.28;4963229;28;20074;-77
2023/06/18 02:54:27;;;;;;;5.88;4.68;;;;;;;23.21;47.30;100674.78;4960599;28;20065;-77
2023/06/18 02:57:22;;;;;;;7.00;4.85;;;;;;;23.20;48.74;100670.41;4974263;28;20046;-77
2023/06/18 03:00:17;;;;;;;9.65;4.30;;;;;;;23.28;48.95;100669.19;4962015;28;20163;-77
2023/06/18 03:03:11;;;;;;;6.10;4.80;;;;;;;23.38;48.33;100666.38;4959484;28;20054;-77
2023/06/18 03:06:07;;;;;;;8.68;4.47;;;;;;;23.53;48.19;100669.09;4963754;28;20042;-77
2023/06/18 03:09:02;;;;;;;13.20;4.80;;;;;;;23.34;48.24;100673.13;4961969;28;20532;-77
2023/06/18 03:11:57;;;;;;;5.63;3.65;;;;;;;23.34;48.75;100675.91;4968345;28;20046;-78
2023/06/18 03:14:51;;;;;;;8.82;5.22;;;;;;;23.25;47.63;100676.34;4966520;28;20053;-78
2023/06/18 03:17:48;;;;;;;12.52;6.65;;;;;;;23.04;47.77;100665.31;4993644;23;20049;-84
2023/06/18 03:20:42;;;;;;;10.30;4.72;;;;;;;22.91;49.06;100672.47;5000219;28;20522;-82
2023/06/18 03:23:37;;;;;;;12.20;5.07;;;;;;;22.82;49.41;100674.88;5001319;28;20523;-82
2023/06/18 03:26:32;;;;;;;11.25;6.80;;;;;;;23.02;48.94;100668.47;4988513;28;20688;-84
2023/06/18 03:29:24;;;;;;;5.85;3.67;;;;;;;23.26;48.47;100677.13;4985446;28;20072;-82
2023/06/18 03:32:19;;;;;;;7.25;4.65;;;;;;;23.41;48.49;100673.09;5004557;28;20052;-83
2023/06/18 03:35:12;;;;;;;7.50;4.28;;;;;;;23.62;48.21;100683.34;5003645;28;20053;-82
2023/06/18 03:38:06;;;;;;;6.80;4.00;;;;;;;23.70;48.10;100674.56;4983022;28;20046;-83
2023/06/18 03:41:01;;;;;;;8.07;5.40;;;;;;;23.68;47.51;100684.50;4997748;28;20049;-82
2023/06/18 03:43:55;;;;;;;7.07;4.30;;;;;;;23.74;47.79;100689.22;5010956;28;20057;-82
2023/06/18 03:46:51;;;;;;;10.73;5.15;;;;;;;23.80;47.60;100684.81;4999865;28;20045;-83
2023/06/18 03:49:47;;;;;;;8.07;4.05;;;;;;;23.86;47.76;100688.75;4993402;28;20542;-83
2023/06/18 03:52:42;;;;;;;6.72;4.25;;;;;;;23.90;47.54;100696.28;5028075;28;20049;-83
2023/06/18 03:55:31;;;;;;;5.85;4.30;;;;;;;23.91;47.66;100695.09;4985730;28;20052;-82
2023/06/18 03:58:24;;;;;;;8.88;4.50;;;;;;;23.74;47.50;100700.31;5002381;28;20045;-83
2023/06/18 04:01:18;;;;;;;7.20;3.97;;;;;;;23.77;47.52;100690.41;5000122;28;20053;-82
2023/06/18 04:04:13;;;;;;;8.30;4.75;;;;;;;23.87;47.81;100700.66;5025286;28;20049;-83
2023/06/18 04:07:22;;;;;;;8.25;5.57;;;;;;;23.83;47.26;100697.88;4993369;28;20073;-84
2023/06/18 04:10:17;;;;;;;6.15;4.32;;;;;;;23.60;47.70;100703.19;4992851;28;20543;-82
2023/06/18 04:13:12;;;;;;;6.88;4.57;;;;;;;23.72;47.98;100705.47;4992661;28;20054;-82
2023/06/18 04:16:05;;;;;;;5.70;4.13;;;;;;;23.79;47.82;100716.56;4980349;28;20516;-82
2023/06/18 04:18:57;;;;;;;7.35;4.47;;;;;;;23.83;47.73;100710.97;4981059;28;20049;-81
2023/06/18 04:21:52;;;;;;;8.75;5.20;;;;;;;23.86;47.45;100715.75;4981374;28;20045;-82
2023/06/18 04:24:46;;;;;;;16.88;7.28;;;;;;;23.56;47.23;100713.53;4978945;28;20045;-83
2023/06/18 04:27:38;;;;;;;6.03;4.40;;;;;;;23.75;47.74;100715.81;5016010;28;20424;-82
2023/06/18 04:30:33;;;;;;;10.50;6.30;;;;;;;23.57;46.56;100711.53;5013846;28;20420;-85
2023/06/18 04:33:27;;;;;;;5.75;4.60;;;;;;;23.68;47.52;100715.81;5014866;28;20056;-83
2023/06/18 04:36:22;;;;;;;15.02;5.97;;;;;;;23.67;47.06;100719.78;5014700;28;20049;-82
2023/06/18 04:39:14;;;;;;;7.40;4.82;;;;;;;23.72;47.64;100713.06;5018448;28;20040;-84
2023/06/18 04:42:09;;;;;;;8.43;4.93;;;;;;;23.74;47.75;100713.41;5015796;28;20049;-83
2023/06/18 04:45:09;;;;;;;11.70;4.57;;;;;;;23.82;47.62;100721.28;5000108;28;21023;-84
2023/06/18 04:48:19;;;;;;;13.20;4.95;;;;;;;23.85;47.84;100714.16;5004058;28;20447;-83
2023/06/18 04:51:15;;;;;;;12.55;6.32;;;;;;;23.75;47.11;100720.56;4985460;28;20064;-80
2023/06/18 04:54:11;;;;;;;10.23;6.55;;;;;;;23.46;48.16;100713.56;4987105;28;20117;-82
2023/06/18 04:57:19;;;;;;;11.57;6.50;;;;;;;23.35;48.55;100708.03;4997331;28;20045;-81
2023/06/18 05:00:15;;;;;;;9.77;5.57;;;;;;;23.35;48.97;100711.59;4993363;28;20444;-83
2023/06/18 05:03:11;;;;;;;8.13;6.07;;;;;;;23.19;48.97;100710.44;4981229;28;20044;-80
2023/06/18 05:06:03;;;;;;;8.25;6.20;;;;;;;22.92;49.96;100710.91;4994792;28;20412;-82
2023/06/18 05:08:57;;;;;;;9.85;6.47;;;;;;;22.78;51.18;100705.38;5000122;28;20053;-81
2023/06/18 05:11:45;;;;;;;10.50;6.05;;;;;;;22.74;51.28;100714.91;4997990;28;20056;-84
2023/06/18 05:14:41;;;;;;;10.30;6.47;;;;;;;22.70;51.02;100716.84;4996435;28;20046;-80
2023/06/18 05:17:35;;;;;;;11.32;6.82;;;;;;;22.69;50.00;100713.28;5002083;28;20040;-81
2023/06/18 05:20:30;;;;;;;12.95;6.38;;;;;;;22.72;50.11;100720.03;4993936;28;20046;-85
2023/06/18 05:23:25;;;;;;;10.00;6.13;;;;;;;22.83;51.45;100723.59;4998220;28;20419;-81
2023/06/18 05:26:21;;;;;;;9.05;6.78;;;;;;;22.82;51.77;100722.78;5016071;28;20049;-83
2023/06/18 05:29:13;;;;;;;12.50;6.57;;;;;;;22.81;49.69;100729.53;5000022;28;20045;-84
2023/06/18 05:32:09;;;;;;;23.27;7.95;;;;;;;22.75;49.13;100728.38;4999186;28;20049;-84
2023/06/18 05:35:01;;;;;;;11.77;5.97;;;;;;;22.69;49.63;100726.34;4983199;28;20049;-82
2023/06/18 05:37:57;;;;;;;9.07;6.53;;;;;;;22.77;49.91;100725.97;4986912;28;20065;-82
2023/06/18 05:40:49;;;;;;;9.27;6.30;;;;;;;22.87;49.63;100719.63;5001474;28;20053;-83
2023/06/18 05:43:44;;;;;;;7.95;6.18;;;;;;;22.88;50.49;100725.97;4988363;28;20052;-81
2023/06/18 05:46:38;;;;;;;12.35;6.95;;;;;;;22.92;50.89;100730.31;5005070;28;20096;-82
2023/06/18 05:49:31;;;;;;;11.20;6.20;;;;;;;22.92;50.89;100724.75;5030118;28;20054;-83
2023/06/18 05:52:26;;;;;;;9.93;7.13;;;;;;;22.86;50.79;100720.81;5000416;28;20064;-81
2023/06/18 05:55:21;;;;;;;11.23;6.93;;;;;;;22.89;50.87;100736.66;5003373;28;20065;-81
2023/06/18 05:58:16;;;;;;;16.33;7.18;;;;;;;22.95;50.90;100729.53;5001472;28;20056;-81
2023/06/18 06:01:09;;;;;;;11.52;8.18;;;;;;;22.99;51.58;100735.06;5007166;28;20407;-82
2023/06/18 06:04:03;;;;;;;10.25;6.68;;;;;;;23.09;51.69;100742.56;5014691;28;20061;-82
2023/06/18 06:06:58;;;;;;;14.45;7.22;;;;;;;23.13;51.74;100745.34;5027769;28;20064;-84
2023/06/18 06:09:49;;;;;;;11.15;6.50;;;;;;;23.23;51.33;100747.28;5003709;28;20052;-81
2023/06/18 06:12:44;;;;;;;15.70;6.65;;;;;;;23.22;51.21;100749.28;5029145;28;20076;-83
2023/06/18 06:15:39;;;;;;;15.85;6.25;;;;;;;23.32;50.39;100754.00;5004518;28;20056;-82
2023/06/18 06:18:31;;;;;;;10.10;5.57;;;;;;;23.63;48.46;100760.66;4990226;28;20049;-83
2023/06/18 06:21:26;;;;;;;11.20;6.40;;;;;;;23.77;47.32;100755.06;5000666;28;20072;-84
2023/06/18 06:24:20;;;;;;;10.57;7.72;;;;;;;23.54;51.20;100759.53;5005250;28;20084;-85
2023/06/18 06:27:13;;;;;;;56.58;18.10;;;;;;;23.72;49.63;100760.25;5007123;28;20045;-87
2023/06/18 06:30:10;;;;;;;69.72;20.02;;;;;;;23.70;50.49;100769.00;5001507;28;20054;-86
2023/06/18 06:33:05;;;;;;;20.05;10.30;;;;;;;23.62;51.59;100764.63;5006162;28;20045;-77
2023/06/18 06:36:00;;;;;;;16.60;8.25;;;;;;;23.51;50.52;100766.69;5005060;28;20042;-85
2023/06/18 06:38:52;;;;;;;31.48;7.50;;;;;;;23.64;47.41;100762.25;4995958;28;20049;-84
2023/06/18 06:41:46;;;;;;;12.98;7.25;;;;;;;23.75;47.95;100776.91;4997756;28;20049;-84
2023/06/18 06:44:39;;;;;;;9.57;6.47;;;;;;;23.86;47.90;100762.97;5014501;28;20048;-85
2023/06/18 06:47:50;;;;;;;15.48;7.82;;;;;;;24.21;47.13;100775.91;5033509;28;20060;-83
2023/06/18 06:50:48;;;;;;;10.30;5.63;;;;;;;24.46;46.55;100768.19;5000295;28;20053;-85
2023/06/18 06:53:41;;;;;;;;;;;;;;;24.63;46.42;100767.25;4999904;28;20049;-83
2023/06/18 06:56:35;;;;;;;10.52;6.35;;;;;;;24.07;48.58;100773.19;4995148;28;19913;-85
2023/06/18 06:59:29;;;;;;;11.27;6.57;;;;;;;23.84;49.32;100774.47;4993078;28;20045;-81
2023/06/18 07:02:26;;;;;;;16.10;7.28;;;;;;;24.10;47.89;100770.38;4998512;28;20065;-86
2023/06/18 07:05:20;;;;;;;11.02;7.88;;;;;;;24.36;47.67;100776.59;4990637;28;20053;-82
2023/06/18 07:08:13;;;;;;;12.45;7.40;;;;;;;24.26;47.63;100786.59;4988592;28;20053;-84
2023/06/18 07:11:07;;;;;;;9.90;6.40;;;;;;;24.47;45.17;100772.56;5000219;28;20410;-82
2023/06/18 07:14:00;;;;;;;17.27;7.80;;;;;;;24.44;47.36;100784.47;4999710;28;20514;-83
2023/06/18 07:16:53;;;;;;;14.07;8.48;;;;;;;24.90;47.72;100788.91;5000937;28;20045;-85
2023/06/18 07:19:45;;;;;;;12.63;8.53;;;;;;;25.22;45.90;100786.63;4998817;28;20052;-83
2023/06/18 07:22:43;;;;;;;12.45;8.60;;;;;;;25.21;46.41;100792.59;5012585;28;20415;-82
2023/06/18 07:25:38;;;;;;;12.30;8.20;;;;;;;24.98;47.01;100796.81;4999302;28;20041;-82
2023/06/18 07:28:30;;;;;;;11.68;7.78;;;;;;;25.33;45.67;100801.22;4983398;28;20045;-82
2023/06/18 07:31:25;;;;;;;13.52;8.43;;;;;;;26.07;43.77;100805.13;4985695;28;20048;-80
2023/06/18 07:34:21;;;;;;;11.55;7.65;;;;;;;25.60;45.14;100800.56;4988868;28;20053;-83
2023/06/18 07:37:31;;;;;;;11.27;7.20;;;;;;;25.73;45.27;100807.19;4996588;28;20045;-81
2023/06/18 07:40:25;;;;;;;12.80;7.57;;;;;;;26.30;43.29;100796.91;4994846;28;20049;-80
2023/06/18 07:43:20;;;;;;;10.50;7.28;;;;;;;25.94;44.38;100804.13;4997851;28;20049;-81
2023/06/18 07:46:12;;;;;;;;;;;;;;;25.77;44.57;100807.91;4993801;28;20045;-80
2023/06/18 07:49:07;;;;;;;8.35;6.30;;;;;;;25.47;45.69;100808.63;4991032;28;19916;-80
2023/06/18 07:52:02;;;;;;;10.18;7.05;;;;;;;25.47;46.04;100809.44;4997790;28;20052;-81
2023/06/18 07:54:54;;;;;;;9.98;6.20;;;;;;;25.50;46.64;100810.56;4980947;28;20049;-81
2023/06/18 07:57:46;;;;;;;13.57;6.60;;;;;;;27.27;42.00;100807.28;4994112;28;20033;-83
2023/06/18 08:00:38;;;;;;;11.05;6.03;;;;;;;28.56;39.45;100807.78;4997695;28;20512;-84
2023/06/18 08:03:32;;;;;;;15.15;5.90;;;;;;;29.24;37.89;100813.31;4975910;28;20081;-82
2023/06/18 08:06:24;;;;;;;7.00;5.97;;;;;;;29.78;37.92;100821.03;4983257;28;20527;-83
2023/06/18 08:09:17;;;;;;;11.13;6.93;;;;;;;30.63;36.33;100818.50;4990689;28;20065;-84
2023/06/18 08:12:10;;;;;;;10.27;6.88;;;;;;;32.09;33.14;100820.59;4995316;28;20049;-80
2023/06/18 08:15:05;;;;;;;10.55;4.88;;;;;;;31.26;33.77;100821.22;4980285;28;20040;-84
2023/06/18 08:18:00;;;;;;;9.57;4.50;;;;;;;31.27;33.51;100819.19;5009072;28;20049;-81
2023/06/18 08:20:54;;;;;;;8.55;5.78;;;;;;;31.93;34.15;100826.44;5003788;28;20420;-82
2023/06/18 08:23:46;;;;;;;;;;;;;;;31.69;33.27;100814.88;4995249;28;20048;-81
2023/06/18 08:26:38;;;;;;;9.63;5.63;;;;;;;31.07;35.00;100815.88;5009887;28;19918;-81
2023/06/18 08:29:30;;;;;;;9.10;5.22;;;;;;;31.77;33.81;100816.16;4979743;28;20060;-84
2023/06/18 08:32:24;;;;;;;7.43;4.85;;;;;;;32.33;32.99;100808.84;4990094;28;20057;-81
2023/06/18 08:35:36;;;;;;;8.52;5.00;;;;;;;33.36;31.47;100813.81;4993996;28;20409;-82
2023/06/18 08:38:32;;;;;;;6.72;3.33;;;;;;;32.74;33.04;100814.03;4975673;28;20057;-79
2023/06/18 08:41:21;;;;;;;4.65;3.38;;;;;;;30.84;35.17;100802.97;5016626;28;20056;-82
2023/06/18 08:44:11;;;;;;;5.22;3.58;;;;;;;28.48;38.66;100803.59;5014727;28;20045;-82
2023/06/18 08:47:03;;;;;;;9.63;3.65;;;;;;;28.41;39.94;100806.56;4995005;28;20412;-81
2023/06/18 08:49:59;;;;;;;8.35;3.67;;;;;;;28.51;40.38;100805.50;5025304;28;20619;-82
2023/06/18 08:52:57;;;;;;;4.03;3.05;;;;;;;27.69;41.08;100797.31;4979831;28;20057;-81
2023/06/18 08:55:50;;;;;;;8.65;2.90;;;;;;;26.79;42.59;100800.09;4998252;28;20077;-78
2023/06/18 08:58:55;;;;;;;7.70;3.00;;;;;;;27.00;42.45;100812.94;4999137;28;20041;-80
2023/06/18 09:01:50;;;;;;;7.85;4.32;;;;;;;27.45;41.73;100808.53;4995062;28;20048;-80
2023/06/18 09:05:03;;;;;;;10.10;3.78;;;;;;;27.10;42.26;100814.78;4986970;28;20053;-82
2023/06/18 09:07:59;;;;;;;4.68;2.92;;;;;;;26.94;42.40;100818.22;4983049;28;20046;-81
2023/06/18 09:10:55;;;;;;;5.10;3.20;;;;;;;26.92;42.69;100817.84;5004413;28;20056;-79
2023/06/18 09:13:47;;;;;;;5.30;3.25;;;;;;;27.10;42.22;100811.97;5001894;28;20057;-80
2023/06/18 09:16:41;;;;;;;4.72;3.38;;;;;;;27.11;41.19;100811.56;5013962;28;20137;-80
2023/06/18 09:19:37;;;;;;;4.35;3.03;;;;;;;27.37;41.63;100809.09;5069261;23;20057;-80
2023/06/18 09:22:44;;;;;;;7.90;2.97;;;;;;;28.23;40.43;100812.56;4971595;28;20054;-79
2023/06/18 09:25:39;;;;;;;4.72;2.85;;;;;;;28.34;38.64;100817.94;4950005;29;20047;-79
2023/06/18 09:28:34;;;;;;;5.05;3.13;;;;;;;28.63;37.50;100807.63;4966816;28;20449;-79
2023/06/18 09:31:29;;;;;;;5.72;3.97;;;;;;;27.92;39.12;100803.63;4991458;23;20049;-80
2023/06/18 09:34:24;;;;;;;3.80;2.97;;;;;;;28.30;39.44;100797.63;4990577;28;20061;-80
2023/06/18 09:37:24;;;;;;;7.03;2.72;;;;;;;27.90;40.51;100808.84;4996681;28;20045;-79
2023/06/18 09:40:25;;;;;;;3.97;2.58;;;;;;;27.49;41.17;100797.28;4976071;28;20050;-78
2023/06/18 09:43:20;;;;;;;10.25;3.40;;;;;;;27.41;41.40;100801.44;4977433;28;20524;-81
2023/06/18 09:46:12;;;;;;;;;;;;;;;27.45;41.49;100800.16;4984468;28;20070;-80
2023/06/18 09:49:06;;;;;;;5.13;3.17;;;;;;;27.33;41.31;100800.78;4970392;28;19914;-80
2023/06/18 09:52:02;;;;;;;6.97;2.80;;;;;;;27.33;41.53;100800.00;4974321;28;20054;-80
2023/06/18 09:54:57;;;;;;;4.05;3.03;;;;;;;27.22;42.21;100795.41;4972031;28;20050;-80
2023/06/18 09:57:55;;;;;;;;;;;;;;;27.23;41.76;100794.16;4982478;28;20046;-79
2023/06/18 10:01:06;;;;;;;8.20;3.33;;;;;;;27.30;42.16;100790.47;4967424;28;19914;-80
2023/06/18 10:04:01;;;;;;;5.57;3.10;;;;;;;27.35;41.92;100791.97;4981888;28;20049;-80
2023/06/18 10:06:56;;;;;;;;;;;;;;;27.43;41.74;100793.44;4982117;28;20425;-80
2023/06/18 10:09:51;;;;;;;8.68;3.05;;;;;;;27.46;41.91;100795.34;4967404;28;19930;-80
2023/06/18 10:12:46;;;;;;;8.98;3.28;;;;;;;27.55;41.13;100793.59;4968827;28;20046;-80
2023/06/18 10:15:38;;;;;;;;;;;;;;;27.42;41.12;100791.84;4972898;28;20414;-79
2023/06/18 10:18:33;;;;;;;5.85;3.08;;;;;;;27.33;42.23;100791.63;4969892;28;19913;-80
2023/06/18 10:21:29;;;;;;;5.97;2.85;;;;;;;27.33;42.61;100791.63;4967518;28;20065;-80
2023/06/18 10:24:27;;;;;;;4.40;2.67;;;;;;;27.43;42.49;100790.63;4970844;28;20045;-80
2023/06/18 10:27:21;;;;;;;5.82;3.08;;;;;;;27.53;41.88;100786.88;4969771;28;20054;-80
2023/06/18 10:30:17;;;;;;;5.78;2.83;;;;;;;27.47;42.02;100791.34;4981947;28;20324;-80
2023/06/18 10:33:12;;;;;;;6.38;3.30;;;;;;;27.31;42.20;100778.09;4979113;28;20049;-80
2023/06/18 10:36:05;;;;;;;4.55;2.78;;;;;;;27.26;42.61;100786.16;4971474;28;20046;-80
2023/06/18 10:38:57;;;;;;;4.13;3.13;;;;;;;27.30;42.73;100781.28;4979149;28;20049;-80
2023/06/18 10:41:54;;;;;;;3.97;2.67;;;;;;;27.26;43.79;100781.38;4966690;28;20115;-81
2023/06/18 10:45:02;;;;;;;4.50;3.15;;;;;;;27.21;43.39;100773.50;4981198;28;20692;-80
2023/06/18 10:48:20;;;;;;;4.28;2.88;;;;;;;27.27;43.20;100769.00;4979332;28;20415;-80
2023/06/18 10:51:20;;;;;;;5.90;2.97;;;;;;;27.28;43.16;100769.78;4970437;28;20065;-80
2023/06/18 10:54:29;;;;;;;5.47;3.28;;;;;;;27.28;44.18;100769.78;4980431;28;20111;-80
2023/06/18 10:57:30;;;;;;;5.35;2.80;;;;;;;27.36;43.41;100772.00;4981119;28;20093;-80
2023/06/18 11:00:29;;;;;;;4.60;3.40;;;;;;;27.39;43.01;100765.53;4981222;28;20046;-80
2023/06/18 11:03:24;;;;;;;5.40;3.47;;;;;;;27.29;43.16;100760.16;4966160;28;20054;-80
2023/06/18 11:06:29;;;;;;;4.57;3.38;;;;;;;27.28;43.19;100759.38;4970201;28;20049;-80
2023/06/18 11:09:23;;;;;;;4.40;3.33;;;;;;;27.18;43.28;100761.16;4966948;28;20041;-80
2023/06/18 11:12:24;;;;;;;7.15;3.35;;;;;;;27.14;43.58;100754.84;4982264;28;20054;-80
2023/06/18 11:15:22;;;;;;;5.72;3.10;;;;;;;27.48;43.22;100748.22;4982560;28;20054;-80
2023/06/18 11:18:19;;;;;;;6.07;3.85;;;;;;;27.44;42.92;100744.69;4982178;28;20062;-80
2023/06/18 11:21:21;;;;;;;5.47;3.25;;;;;;;27.39;43.24;100736.81;4971029;28;20070;-81
2023/06/18 11:24:16;;;;;;;5.28;3.38;;;;;;;27.47;44.30;100730.69;4982249;28;20050;-80
2023/06/18 11:27:06;;;;;;;;;;;;;;;27.66;42.97;100740.28;4971619;28;20049;-80
2023/06/18 11:30:03;;;;;;;5.28;3.90;;;;;;;27.78;41.98;100730.47;4967870;28;19922;-80
2023/06/18 11:32:58;;;;;;;5.75;2.80;;;;;;;27.48;42.79;100723.09;4982281;28;20537;-80
2023/06/18 11:35:50;;;;;;;3.58;2.95;;;;;;;27.36;42.98;100732.91;4980484;28;20054;-80
2023/06/18 11:38:46;;;;;;;4.63;3.08;;;;;;;27.15;43.15;100727.72;4981778;28;20042;-82
2023/06/18 11:41:40;;;;;;;4.60;3.17;;;;;;;27.15;43.38;100719.34;4965625;28;20046;-81
2023/06/18 11:44:35;;;;;;;3.92;2.97;;;;;;;27.20;42.96;100716.06;4979046;28;20053;-81
2023/06/18 11:47:27;;;;;;;;;;;;;;;27.22;43.32;100710.84;4968642;28;20611;-80
2023/06/18 11:50:21;;;;;;;3.65;2.70;;;;;;;27.10;43.39;100708.66;4959396;28;19918;-81
2023/06/18 11:53:11;;;;;;;;;;;;;;;27.14;43.52;100712.19;4973304;28;20046;-82
2023/06/18 11:56:04;;;;;;;6.65;3.22;;;;;;;27.10;43.60;100698.28;4984085;28;19914;-81
2023/06/18 11:58:58;;;;;;;8.90;4.80;;;;;;;27.24;43.51;100697.22;4990638;28;20045;-80
2023/06/18 12:01:50;;;;;;;;;;;;;;;27.32;43.87;100692.28;4975906;28;20070;-80
2023/06/18 12:04:43;;;;;;;4.90;3.28;;;;;;;27.23;43.67;100693.63;4983012;28;19914;-80
2023/06/18 12:07:39;;;;;;;4.05;3.17;;;;;;;27.37;44.11;100687.00;4982437;28;20042;-81
2023/06/18 12:10:33;;;;;;;7.35;3.63;;;;;;;27.55;43.31;100690.22;4986555;28;20045;-80
2023/06/18 12:13:44;;;;;;;3.63;3.10;;;;;;;27.48;43.32;100689.56;4968048;28;20045;-81
2023/06/18 12:16:41;;;;;;;3.65;2.95;;;;;;;27.31;43.25;100688.72;4971976;28;20046;-81
2023/06/18 12:19:34;;;;;;;6.00;3.25;;;;;;;27.26;43.45;100683.63;4967754;28;20045;-82
2023/06/18 12:22:27;;;;;;;4.95;3.60;;;;;;;27.32;43.24;100683.91;4980563;28;20054;-82
2023/06/18 12:25:18;;;;;;;4.38;2.80;;;;;;;27.17;43.54;100686.22;4979937;28;20054;-82
2023/06/18 12:28:13;;;;;;;3.60;3.30;;;;;;;26.95;44.17;100683.03;4977481;28;20042;-81
2023/06/18 12:31:14;;;;;;;4.78;3.40;;;;;;;26.95;44.36;100674.66;4987934;28;20049;-81
2023/06/18 12:34:22;;;;;;;7.10;3.08;;;;;;;26.94;43.93;100673.09;4979103;28;20046;-82
2023/06/18 12:37:14;;;;;;;5.00;3.80;;;;;;;27.10;42.35;100681.53;4973515;28;20050;-83
2023/06/18 12:40:28;;;;;;;37.95;6.20;;;;;;;27.34;42.85;100679.47;4966893;28;20046;-83
2023/06/18 12:43:22;;;;;;;104.28;8.55;;;;;;;27.37;42.66;100661.06;4965360;28;20054;-76
2023/06/18 12:46:12;;;;;;;;;;;;;;;27.48;41.37;100667.22;4962620;28;20413;-75
2023/06/18 12:49:01;;;;;;;37.47;4.75;;;;;;;27.41;42.35;100672.94;4975279;28;19922;-82
2023/06/18 12:51:54;;;;;;;32.30;4.75;;;;;;;27.16;43.43;100668.66;4979296;28;20053;-83
2023/06/18 12:54:49;;;;;;;27.67;3.88;;;;;;;27.41;43.06;100661.78;4974228;28;20053;-76
2023/06/18 12:57:43;;;;;;;;;;;;;;;27.44;42.73;100658.09;4972711;28;20038;-75
2023/06/18 13:00:37;;;;;;;14.15;3.85;;;;;;;27.54;42.77;100655.09;4971776;28;19914;-75
2023/06/18 13:03:32;;;;;;;21.08;4.45;;;;;;;27.32;42.63;100661.56;4967473;28;20050;-80
2023/06/18 13:06:26;;;;;;;317.70;68.78;;;;;;;27.08;43.41;100661.63;4973176;28;20046;-83
2023/06/18 13:09:19;;;;;;;;;;;;;;;26.89;43.14;100659.63;4965010;28;20030;-81
2023/06/18 13:12:13;;;;;;;99.97;26.02;;;;;;;26.85;43.76;100661.66;4978070;28;19918;-81
2023/06/18 13:15:05;;;;;;;;;;;;;;;26.77;43.62;100651.84;4968229;28;20035;-81
2023/06/18 13:18:00;;;;;;;58.47;16.13;;;;;;;26.65;43.88;100649.69;4965508;28;19914;-80
2023/06/18 13:20:52;;;;;;;;;;;;;;;26.56;44.21;100649.47;4977915;28;20043;-81
2023/06/18 13:23:46;;;;;;;31.13;8.95;;;;;;;26.48;44.37;100648.00;4967143;28;20365;-80
2023/06/18 13:26:41;;;;;;;27.75;7.53;;;;;;;26.39;45.03;100652.13;4981405;28;20049;-80
2023/06/18 13:29:33;;;;;;;;;;;;;;;26.39;44.55;100648.56;4969507;28;20046;-80
2023/06/18 13:32:27;;;;;;;9.82;4.35;;;;;;;26.44;44.92;100647.28;4970379;28;19918;-81
2023/06/18 13:35:20;;;;;;;;;;;;;;;26.39;44.91;100649.34;4968668;28;20046;-80
2023/06/18 13:38:12;;;;;;;6.53;3.88;;;;;;;26.39;44.75;100649.34;4971476;28;20381;-81